Time;durP1;ratioP1;P1;durP2;ratioP2;P2;SDS_P1;SDS_P2;PMS_P1;PMS_P2;Temp;Humidity;BMP_temperature;BMP_pressure;BME280_temperature;BME280_humidity;BME280_pressure;Samples;Min_cycle;Max_cycle;Signal;HPM_P1;HPM_P2
2021/10/21 00:02:39;;;;;;;2.05;1.91;;;;;;;19.83;63.54;98955.14;;;;-48
2021/10/21 00:05:39;;;;;;;2.26;2.06;;;;;;;19.82;63.55;98944.93;;;;-47
2021/10/21 00:08:39;;;;;;;2.16;1.96;;;;;;;19.82;63.54;98940.70;;;;-48
2021/10/21 00:11:39;;;;;;;2.25;2.05;;;;;;;19.82;63.56;98952.48;;;;-48
2021/10/21 00:14:39;;;;;;;2.13;1.98;;;;;;;19.81;63.57;98933.66;;;;-50
2021/10/21 00:17:39;;;;;;;2.35;2.15;;;;;;;19.79;63.56;98891.98;;;;-50
2021/10/21 00:20:39;;;;;;;2.57;1.92;;;;;;;19.79;63.59;98898.50;;;;-45
2021/10/21 00:23:39;;;;;;;2.69;1.92;;;;;;;19.79;63.66;98899.47;;;;-50
2021/10/21 00:26:39;;;;;;;2.15;1.96;;;;;;;19.77;63.60;98877.45;;;;-54
2021/10/21 00:29:39;;;;;;;2.17;2.01;;;;;;;19.76;63.64;98853.85;;;;-45
2021/10/21 00:32:39;;;;;;;2.17;1.97;;;;;;;19.76;63.57;98840.45;;;;-46
2021/10/21 00:35:39;;;;;;;2.19;2.01;;;;;;;19.75;63.67;98867.77;;;;-48
2021/10/21 00:38:39;;;;;;;2.35;2.15;;;;;;;19.75;63.67;98869.21;;;;-50
2021/10/21 00:41:39;;;;;;;1.85;1.75;;;;;;;19.74;63.64;98881.85;;;;-54
2021/10/21 00:44:39;;;;;;;2.14;2.00;;;;;;;19.75;63.68;98906.05;;;;-47
2021/10/21 00:47:39;;;;;;;2.00;1.87;;;;;;;19.74;63.69;98924.70;;;;-47
2021/10/21 00:50:39;;;;;;;2.06;1.90;;;;;;;19.72;63.69;98862.30;;;;-48
2021/10/21 00:53:39;;;;;;;2.15;1.92;;;;;;;19.71;63.71;98816.56;;;;-47
2021/10/21 00:56:39;;;;;;;2.21;2.00;;;;;;;19.70;63.74;98829.41;;;;-45
2021/10/21 00:59:39;;;;;;;2.72;1.91;;;;;;;19.70;63.75;98828.03;;;;-45
2021/10/21 01:02:39;;;;;;;2.45;2.25;;;;;;;19.70;63.72;98839.09;;;;-45
2021/10/21 01:05:39;;;;;;;2.64;2.27;;;;;;;19.69;63.73;98801.12;;;;-50
2021/10/21 01:08:39;;;;;;;2.29;2.09;;;;;;;19.69;63.71;98813.73;;;;-50
2021/10/21 01:11:39;;;;;;;2.07;1.95;;;;;;;19.69;63.74;98799.92;;;;-48
2021/10/21 01:14:39;;;;;;;2.31;2.11;;;;;;;19.67;63.76;98781.52;;;;-48
2021/10/21 01:17:39;;;;;;;2.41;2.21;;;;;;;19.67;63.70;98766.72;;;;-50
2021/10/21 01:20:39;;;;;;;2.33;2.13;;;;;;;19.67;63.77;98751.20;;;;-50
2021/10/21 01:23:39;;;;;;;2.10;1.99;;;;;;;19.66;63.71;98724.66;;;;-50
2021/10/21 01:26:39;;;;;;;2.24;2.05;;;;;;;19.64;63.77;98743.54;;;;-50
2021/10/21 01:29:39;;;;;;;2.22;2.05;;;;;;;19.64;63.78;98750.62;;;;-50
2021/10/21 01:32:39;;;;;;;1.95;1.83;;;;;;;19.64;63.79;98722.52;;;;-50
2021/10/21 01:35:39;;;;;;;2.10;1.95;;;;;;;19.63;63.75;98663.22;;;;-50
2021/10/21 01:38:39;;;;;;;2.41;2.21;;;;;;;19.62;63.75;98647.31;;;;-50
2021/10/21 01:41:39;;;;;;;2.17;2.07;;;;;;;19.62;63.75;98630.02;;;;-50
2021/10/21 01:44:39;;;;;;;1.92;1.82;;;;;;;19.61;63.78;98645.63;;;;-47
2021/10/21 01:47:39;;;;;;;1.80;1.70;;;;;;;19.61;63.84;98653.20;;;;-47
2021/10/21 01:50:39;;;;;;;2.31;2.11;;;;;;;19.61;63.78;98659.20;;;;-50
2021/10/21 01:53:39;;;;;;;2.05;1.93;;;;;;;19.59;63.83;98640.97;;;;-51
2021/10/21 01:56:39;;;;;;;2.23;2.03;;;;;;;19.59;63.81;98631.45;;;;-53
2021/10/21 01:59:39;;;;;;;2.38;2.18;;;;;;;19.59;63.82;98627.89;;;;-54
2021/10/21 02:02:39;;;;;;;2.08;1.88;;;;;;;19.58;63.81;98634.06;;;;-51
2021/10/21 02:05:39;;;;;;;2.12;1.92;;;;;;;19.58;63.85;98630.99;;;;-46
2021/10/21 02:08:39;;;;;;;2.14;2.04;;;;;;;19.58;63.79;98619.70;;;;-45
2021/10/21 02:11:39;;;;;;;1.90;1.80;;;;;;;19.57;63.85;98608.50;;;;-54
2021/10/21 02:14:39;;;;;;;2.12;1.92;;;;;;;19.56;63.85;98613.80;;;;-50
2021/10/21 02:17:39;;;;;;;2.00;1.90;;;;;;;19.56;63.88;98623.00;;;;-50
2021/10/21 02:20:39;;;;;;;1.90;1.80;;;;;;;19.55;63.88;98614.73;;;;-45
2021/10/21 02:23:39;;;;;;;1.79;1.69;;;;;;;19.54;63.88;98626.94;;;;-50
2021/10/21 02:26:39;;;;;;;1.90;1.80;;;;;;;19.54;63.91;98643.34;;;;-48
2021/10/21 02:29:39;;;;;;;1.92;1.78;;;;;;;19.54;63.94;98640.98;;;;-48
2021/10/21 02:32:39;;;;;;;2.15;2.00;;;;;;;19.53;63.89;98650.93;;;;-45
2021/10/21 02:35:39;;;;;;;2.25;2.05;;;;;;;19.54;63.97;98661.89;;;;-50
2021/10/21 02:38:39;;;;;;;1.97;1.87;;;;;;;19.53;64.01;98663.11;;;;-48
2021/10/21 02:41:39;;;;;;;1.90;1.80;;;;;;;19.53;63.93;98661.19;;;;-45
2021/10/21 02:44:39;;;;;;;2.17;1.99;;;;;;;19.53;63.90;98677.17;;;;-47
2021/10/21 02:47:40;;;;;;;2.17;1.95;;;;;;;19.52;63.96;98671.66;;;;-54
2021/10/21 02:50:39;;;;;;;1.95;1.85;;;;;;;19.52;63.98;98669.80;;;;-45
2021/10/21 02:53:39;;;;;;;1.97;1.87;;;;;;;19.50;63.95;98663.17;;;;-50
2021/10/21 02:56:39;;;;;;;1.92;1.82;;;;;;;19.51;63.99;98676.08;;;;-54
2021/10/21 02:59:40;;;;;;;1.91;1.81;;;;;;;19.50;64.00;98669.99;;;;-45
2021/10/21 03:02:39;;;;;;;2.12;1.96;;;;;;;19.50;64.00;98657.50;;;;-45
2021/10/21 03:05:39;;;;;;;1.91;1.81;;;;;;;19.48;64.04;98676.45;;;;-45
2021/10/21 03:08:39;;;;;;;2.09;1.91;;;;;;;19.49;64.03;98680.66;;;;-46
2021/10/21 03:11:39;;;;;;;2.27;1.83;;;;;;;19.49;64.02;98681.98;;;;-46
2021/10/21 03:14:39;;;;;;;2.13;1.99;;;;;;;19.48;64.03;98689.05;;;;-45
2021/10/21 03:17:41;;;;;;;2.09;1.99;;;;;;;19.48;64.03;98695.89;;;;-45
2021/10/21 03:20:39;;;;;;;2.08;1.90;;;;;;;19.48;64.08;98703.77;;;;-45
2021/10/21 03:23:39;;;;;;;2.10;1.84;;;;;;;19.47;64.03;98698.91;;;;-45
2021/10/21 03:26:39;;;;;;;1.88;1.78;;;;;;;19.46;64.10;98688.70;;;;-45
2021/10/21 03:29:39;;;;;;;2.00;1.90;;;;;;;19.46;64.10;98703.66;;;;-45
2021/10/21 03:32:39;;;;;;;2.06;1.96;;;;;;;19.45;64.07;98710.58;;;;-45
2021/10/21 03:35:39;;;;;;;1.90;1.80;;;;;;;19.45;64.11;98719.51;;;;-45
2021/10/21 03:38:39;;;;;;;1.88;1.78;;;;;;;19.45;64.10;98724.56;;;;-45
2021/10/21 03:41:39;;;;;;;1.73;1.63;;;;;;;19.44;64.06;98746.91;;;;-45
2021/10/21 03:44:39;;;;;;;2.17;1.95;;;;;;;19.43;64.13;98739.93;;;;-45
2021/10/21 03:47:39;;;;;;;1.91;1.81;;;;;;;19.44;64.10;98736.92;;;;-46
2021/10/21 03:50:39;;;;;;;1.70;1.60;;;;;;;19.43;64.13;98756.99;;;;-45
2021/10/21 03:53:40;;;;;;;1.81;1.71;;;;;;;19.43;64.14;98756.03;;;;-46
2021/10/21 03:56:39;;;;;;;1.84;1.74;;;;;;;19.43;64.16;98780.00;;;;-45
2021/10/21 03:59:39;;;;;;;1.99;1.86;;;;;;;19.42;64.17;98775.05;;;;-45
2021/10/21 04:02:39;;;;;;;2.19;1.99;;;;;;;19.42;64.15;98792.28;;;;-46
2021/10/21 04:05:39;;;;;;;2.27;2.07;;;;;;;19.42;64.15;98798.37;;;;-46
2021/10/21 04:08:39;;;;;;;1.87;1.77;;;;;;;19.41;64.11;98770.28;;;;-45
2021/10/21 04:11:39;;;;;;;2.25;2.05;;;;;;;19.41;64.11;98794.58;;;;-45
2021/10/21 04:14:40;;;;;;;2.32;2.12;;;;;;;19.40;64.17;98822.36;;;;-45
2021/10/21 04:17:39;;;;;;;2.23;2.05;;;;;;;19.41;64.13;98810.59;;;;-45
2021/10/21 04:20:39;;;;;;;2.41;2.23;;;;;;;19.39;64.16;98836.27;;;;-45
2021/10/21 04:23:39;;;;;;;2.38;2.18;;;;;;;19.40;64.18;98833.41;;;;-46
2021/10/21 04:26:40;;;;;;;2.37;2.17;;;;;;;19.39;64.15;98839.95;;;;-45
2021/10/21 04:29:39;;;;;;;1.99;1.88;;;;;;;19.40;64.09;98839.58;;;;-45
2021/10/21 04:32:39;;;;;;;2.75;2.55;;;;;;;19.38;64.19;98846.78;;;;-45
2021/10/21 04:35:39;;;;;;;2.18;2.08;;;;;;;19.37;64.12;98848.00;;;;-45
2021/10/21 04:38:39;;;;;;;2.17;2.03;;;;;;;19.37;64.15;98864.01;;;;-45
2021/10/21 04:41:39;;;;;;;3.07;2.83;;;;;;;19.37;64.13;98861.81;;;;-45
2021/10/21 04:44:42;;;;;;;1.93;1.83;;;;;;;19.37;64.12;98876.75;;;;-45
2021/10/21 04:47:39;;;;;;;1.79;1.69;;;;;;;19.39;64.10;98879.08;;;;-45
2021/10/21 04:50:39;;;;;;;1.80;1.70;;;;;;;19.39;64.05;98869.81;;;;-45
2021/10/21 04:53:39;;;;;;;1.78;1.68;;;;;;;19.40;64.09;98873.28;;;;-45
2021/10/21 04:56:41;;;;;;;1.68;1.57;;;;;;;19.42;64.12;98878.95;;;;-45
2021/10/21 04:59:39;;;;;;;1.53;1.43;;;;;;;19.43;64.09;98885.98;;;;-46
2021/10/21 05:02:39;;;;;;;1.71;1.61;;;;;;;19.45;64.07;98889.63;;;;-45
2021/10/21 05:05:39;;;;;;;1.81;1.65;;;;;;;19.47;64.01;98879.25;;;;-45
2021/10/21 05:08:39;;;;;;;1.67;1.57;;;;;;;19.49;64.04;98878.08;;;;-45
2021/10/21 05:11:39;;;;;;;1.60;1.50;;;;;;;19.52;63.97;98902.72;;;;-45
2021/10/21 05:14:39;;;;;;;1.70;1.60;;;;;;;19.55;64.08;98905.51;;;;-45
2021/10/21 05:17:39;;;;;;;1.70;1.60;;;;;;;19.58;64.11;98914.21;;;;-46
2021/10/21 05:20:41;;;;;;;1.69;1.57;;;;;;;19.61;64.04;98911.91;;;;-45
2021/10/21 05:23:39;;;;;;;1.73;1.63;;;;;;;19.64;64.13;98906.41;;;;-45
2021/10/21 05:26:39;;;;;;;1.74;1.64;;;;;;;19.67;64.10;98910.33;;;;-45
2021/10/21 05:29:39;;;;;;;1.79;1.69;;;;;;;19.70;64.15;98929.14;;;;-46
2021/10/21 05:32:39;;;;;;;1.77;1.66;;;;;;;19.73;64.29;98951.91;;;;-45
2021/10/21 05:35:39;;;;;;;1.67;1.57;;;;;;;19.76;64.17;98925.63;;;;-45
2021/10/21 05:38:39;;;;;;;1.71;1.61;;;;;;;19.79;64.20;98939.03;;;;-54
2021/10/21 05:41:39;;;;;;;1.79;1.65;;;;;;;19.83;64.38;98928.23;;;;-54
2021/10/21 05:44:40;;;;;;;1.70;1.60;;;;;;;19.85;64.28;98913.64;;;;-54
2021/10/21 05:47:41;;;;;;;1.65;1.55;;;;;;;19.87;64.21;98929.95;;;;-53
2021/10/21 05:50:39;;;;;;;2.11;1.60;;;;;;;19.90;64.36;98932.59;;;;-54
2021/10/21 05:53:39;;;;;;;1.69;1.59;;;;;;;19.92;64.28;98929.45;;;;-54
2021/10/21 05:56:39;;;;;;;1.50;1.40;;;;;;;19.94;64.29;98925.43;;;;-46
2021/10/21 05:59:39;;;;;;;1.81;1.60;;;;;;;19.96;64.32;98931.32;;;;-50
2021/10/21 06:02:39;;;;;;;1.67;1.57;;;;;;;19.99;64.32;98936.39;;;;-54
2021/10/21 06:05:39;;;;;;;1.60;1.50;;;;;;;20.00;64.20;98942.45;;;;-54
2021/10/21 06:08:39;;;;;;;1.89;1.50;;;;;;;20.02;64.27;98936.80;;;;-49
2021/10/21 06:11:39;;;;;;;1.53;1.43;;;;;;;20.04;64.28;98926.19;;;;-50
2021/10/21 06:14:39;;;;;;;1.60;1.50;;;;;;;20.06;64.22;98928.44;;;;-50
2021/10/21 06:17:41;;;;;;;1.51;1.41;;;;;;;20.07;64.14;98934.94;;;;-51
2021/10/21 06:20:39;;;;;;;1.90;1.47;;;;;;;20.08;64.13;98925.95;;;;-48
2021/10/21 06:23:39;;;;;;;1.57;1.43;;;;;;;20.10;64.13;98949.89;;;;-45
2021/10/21 06:26:39;;;;;;;1.55;1.45;;;;;;;20.10;64.12;98965.67;;;;-45
2021/10/21 06:29:40;;;;;;;1.67;1.41;;;;;;;20.13;64.10;98970.02;;;;-51
2021/10/21 06:32:40;;;;;;;2.70;1.43;;;;;;;20.14;64.17;98994.63;;;;-56
2021/10/21 06:35:40;;;;;;;2.45;1.61;;;;;;;20.15;63.32;99013.95;;;;-51
2021/10/21 06:38:39;;;;;;;6.06;1.65;;;;;;;20.15;62.73;99022.59;;;;-51
2021/10/21 06:41:39;;;;;;;7.87;1.85;;;;;;;20.18;63.34;99040.19;;;;-53
2021/10/21 06:44:39;;;;;;;2.90;1.67;;;;;;;20.19;63.87;99008.20;;;;-53
2021/10/21 06:47:39;;;;;;;2.49;1.47;;;;;;;20.20;63.65;99065.27;;;;-53
2021/10/21 06:50:39;;;;;;;1.97;1.44;;;;;;;20.21;63.59;99077.13;;;;-53
2021/10/21 06:53:39;;;;;;;1.91;1.63;;;;;;;20.22;63.78;99089.22;;;;-60
2021/10/21 06:56:39;;;;;;;1.75;1.39;;;;;;;20.23;63.71;99097.09;;;;-54
2021/10/21 06:59:39;;;;;;;2.23;1.40;;;;;;;20.25;63.76;99106.81;;;;-61
2021/10/21 07:02:39;;;;;;;1.52;1.42;;;;;;;20.25;63.63;99111.85;;;;-54
2021/10/21 07:05:41;;;;;;;2.99;1.40;;;;;;;20.27;63.74;99135.75;;;;-53
2021/10/21 07:08:39;;;;;;;2.13;1.44;;;;;;;20.27;63.65;99158.02;;;;-53
2021/10/21 07:11:39;;;;;;;4.69;1.71;;;;;;;20.29;63.55;99185.83;;;;-53
2021/10/21 07:14:39;;;;;;;2.76;1.45;;;;;;;20.30;63.62;99212.51;;;;-54
2021/10/21 07:17:40;;;;;;;2.82;1.40;;;;;;;20.30;63.60;99212.74;;;;-53
2021/10/21 07:20:39;;;;;;;2.59;1.43;;;;;;;20.18;61.22;99230.41;;;;-53
2021/10/21 07:23:39;;;;;;;3.29;1.51;;;;;;;20.09;60.03;99241.72;;;;-51
2021/10/21 07:26:41;;;;;;;3.45;1.20;;;;;;;20.01;59.40;99266.64;;;;-52
2021/10/21 07:29:39;;;;;;;7.08;1.50;;;;;;;19.93;59.19;99292.13;;;;-49
2021/10/21 07:32:39;;;;;;;6.65;1.27;;;;;;;19.94;59.86;99304.80;;;;-49
2021/10/21 07:35:39;;;;;;;4.68;1.20;;;;;;;20.00;60.20;99301.36;;;;-58
2021/10/21 07:38:39;;;;;;;3.45;1.22;;;;;;;20.04;60.60;99328.40;;;;-51
2021/10/21 07:41:39;;;;;;;2.83;1.30;;;;;;;20.07;60.89;99335.77;;;;-50
2021/10/21 07:44:39;;;;;;;3.69;1.31;;;;;;;20.08;61.05;99353.23;;;;-55
2021/10/21 07:47:39;;;;;;;4.63;1.20;;;;;;;20.09;61.17;99358.02;;;;-50
2021/10/21 07:50:39;;;;;;;2.93;1.27;;;;;;;20.11;61.30;99373.94;;;;-55
2021/10/21 07:53:39;;;;;;;2.74;1.26;;;;;;;20.11;61.38;99384.09;;;;-60
2021/10/21 07:56:39;;;;;;;2.79;1.24;;;;;;;20.12;61.47;99397.00;;;;-50
2021/10/21 07:59:39;;;;;;;1.79;1.24;;;;;;;20.12;61.52;99414.50;;;;-51
2021/10/21 08:02:39;;;;;;;3.23;1.20;;;;;;;20.12;61.57;99419.13;;;;-51
2021/10/21 08:05:40;;;;;;;3.64;1.20;;;;;;;20.12;61.61;99433.93;;;;-56
2021/10/21 08:08:39;;;;;;;1.95;1.30;;;;;;;20.12;61.68;99454.67;;;;-56
2021/10/21 08:11:39;;;;;;;2.94;1.35;;;;;;;20.10;61.72;99469.17;;;;-50
2021/10/21 08:14:39;;;;;;;2.55;1.41;;;;;;;20.11;61.77;99499.19;;;;-56
2021/10/21 08:17:40;;;;;;;1.78;1.08;;;;;;;20.11;61.84;99513.33;;;;-49
2021/10/21 08:20:39;;;;;;;3.71;1.23;;;;;;;20.09;61.86;99510.52;;;;-51
2021/10/21 08:23:39;;;;;;;1.62;1.07;;;;;;;20.09;61.93;99543.39;;;;-50
2021/10/21 08:26:41;;;;;;;2.13;1.12;;;;;;;20.08;61.96;99546.88;;;;-50
2021/10/21 08:29:39;;;;;;;1.30;1.00;;;;;;;20.07;61.99;99564.88;;;;-55
2021/10/21 08:32:39;;;;;;;1.25;1.13;;;;;;;20.07;62.05;99582.77;;;;-56
2021/10/21 08:35:39;;;;;;;1.29;1.07;;;;;;;20.06;62.11;99598.22;;;;-59
2021/10/21 08:38:39;;;;;;;1.49;1.10;;;;;;;20.05;62.13;99618.16;;;;-50
2021/10/21 08:41:41;;;;;;;1.65;1.06;;;;;;;20.05;62.17;99636.14;;;;-50
2021/10/21 08:44:39;;;;;;;2.67;1.10;;;;;;;20.03;62.17;99633.22;;;;-56
2021/10/21 08:47:39;;;;;;;1.33;1.00;;;;;;;20.03;62.19;99646.80;;;;-56
2021/10/21 08:50:39;;;;;;;1.97;1.19;;;;;;;20.03;62.06;99658.52;;;;-59
2021/10/21 08:53:39;;;;;;;2.73;1.28;;;;;;;20.02;62.15;99670.14;;;;-58
2021/10/21 08:56:39;;;;;;;1.51;1.04;;;;;;;20.02;62.23;99688.05;;;;-59
2021/10/21 08:59:39;;;;;;;1.16;1.05;;;;;;;20.00;62.24;99704.06;;;;-55
2021/10/21 09:02:46;;;;;;;1.43;1.14;;;;;;;20.00;62.30;99722.62;;;;-50
2021/10/21 09:05:47;;;;;;;1.48;1.11;;;;;;;19.99;62.35;99725.08;;;;-50
2021/10/21 09:08:39;;;;;;;1.29;0.97;;;;;;;19.98;62.36;99733.70;;;;-50
2021/10/21 09:11:39;;;;;;;0.99;0.92;;;;;;;19.98;62.42;99742.48;;;;-59
2021/10/21 09:14:40;;;;;;;1.63;0.99;;;;;;;19.96;62.41;99753.55;;;;-56
2021/10/21 09:17:39;;;;;;;1.81;1.01;;;;;;;19.95;62.44;99766.73;;;;-56
2021/10/21 09:20:42;;;;;;;1.16;1.01;;;;;;;19.94;62.40;99779.59;;;;-56
2021/10/21 09:23:39;;;;;;;1.67;1.05;;;;;;;19.93;62.46;99793.83;;;;-59
2021/10/21 09:26:39;;;;;;;1.14;1.03;;;;;;;19.93;62.49;99809.94;;;;-59
2021/10/21 09:29:39;;;;;;;1.51;1.11;;;;;;;19.92;62.54;99803.09;;;;-50
2021/10/21 09:32:39;;;;;;;0.92;0.89;;;;;;;19.91;62.51;99816.93;;;;-50
2021/10/21 09:35:40;;;;;;;1.09;1.00;;;;;;;19.90;62.56;99810.20;;;;-56
2021/10/21 09:38:40;;;;;;;1.33;0.97;;;;;;;19.89;62.58;99814.83;;;;-56
2021/10/21 09:41:39;;;;;;;1.21;1.01;;;;;;;19.89;62.58;99820.05;;;;-56
2021/10/21 09:44:39;;;;;;;1.09;1.00;;;;;;;19.88;62.58;99820.55;;;;-58
2021/10/21 09:47:41;;;;;;;1.34;1.06;;;;;;;19.88;62.60;99827.35;;;;-50
2021/10/21 09:50:39;;;;;;;1.31;1.02;;;;;;;19.87;62.60;99828.34;;;;-58
2021/10/21 09:53:39;;;;;;;1.05;1.01;;;;;;;19.86;62.62;99825.84;;;;-56
2021/10/21 09:56:39;;;;;;;1.19;1.09;;;;;;;19.85;62.65;99828.27;;;;-51
2021/10/21 09:59:39;;;;;;;0.98;0.98;;;;;;;19.84;62.64;99833.41;;;;-50
2021/10/21 10:02:39;;;;;;;1.19;1.09;;;;;;;19.84;62.68;99840.87;;;;-59
2021/10/21 10:05:39;;;;;;;1.07;0.99;;;;;;;19.83;62.63;99842.50;;;;-50
2021/10/21 10:08:39;;;;;;;0.90;0.90;;;;;;;19.82;62.69;99845.70;;;;-58
2021/10/21 10:11:39;;;;;;;1.10;1.00;;;;;;;19.81;62.70;99860.89;;;;-59
2021/10/21 10:14:39;;;;;;;1.26;0.97;;;;;;;19.81;62.73;99866.42;;;;-50
2021/10/21 10:17:39;;;;;;;1.05;0.83;;;;;;;19.80;62.72;99859.70;;;;-50
2021/10/21 10:20:39;;;;;;;1.03;1.00;;;;;;;19.79;62.73;99860.73;;;;-56
2021/10/21 10:23:39;;;;;;;1.20;1.10;;;;;;;19.78;62.76;99863.61;;;;-50
2021/10/21 10:26:39;;;;;;;1.21;0.93;;;;;;;19.77;62.76;99865.22;;;;-50
2021/10/21 10:29:40;;;;;;;1.22;1.00;;;;;;;19.76;62.77;99872.72;;;;-50
2021/10/21 10:32:41;;;;;;;0.83;0.83;;;;;;;19.75;62.79;99875.38;;;;-50
2021/10/21 10:35:41;;;;;;;1.41;0.90;;;;;;;19.75;62.77;99887.09;;;;-58
2021/10/21 10:38:39;;;;;;;1.10;1.00;;;;;;;19.75;62.80;99885.47;;;;-57
2021/10/21 10:41:39;;;;;;;0.97;0.95;;;;;;;19.73;62.85;99890.61;;;;-58
2021/10/21 10:44:39;;;;;;;1.29;1.07;;;;;;;19.73;62.85;99893.05;;;;-58
2021/10/21 10:47:39;;;;;;;0.81;0.81;;;;;;;19.72;62.85;99898.33;;;;-56
2021/10/21 10:50:39;;;;;;;0.97;0.97;;;;;;;19.72;62.87;99897.29;;;;-58
2021/10/21 10:53:39;;;;;;;1.08;0.98;;;;;;;19.70;62.85;99906.62;;;;-58
2021/10/21 10:56:39;;;;;;;0.83;0.83;;;;;;;19.70;62.87;99916.85;;;;-50
2021/10/21 10:59:40;;;;;;;1.20;1.10;;;;;;;19.69;62.86;99910.02;;;;-50
2021/10/21 11:02:39;;;;;;;1.26;0.89;;;;;;;19.68;62.91;99908.64;;;;-50
2021/10/21 11:05:39;;;;;;;1.11;1.01;;;;;;;19.67;62.85;99903.94;;;;-50
2021/10/21 11:08:39;;;;;;;1.07;0.85;;;;;;;19.66;62.94;99906.85;;;;-55
2021/10/21 11:11:39;;;;;;;1.33;0.99;;;;;;;19.66;62.91;99905.97;;;;-56
2021/10/21 11:14:43;;;;;;;1.12;1.02;;;;;;;19.66;62.92;99909.87;;;;-56
2021/10/21 11:17:39;;;;;;;0.97;0.87;;;;;;;19.64;62.90;99908.00;;;;-56
2021/10/21 11:20:39;;;;;;;1.40;1.15;;;;;;;19.64;62.94;99904.67;;;;-56
2021/10/21 11:23:39;;;;;;;0.99;0.95;;;;;;;19.63;62.92;99911.03;;;;-50
2021/10/21 11:26:39;;;;;;;1.09;0.99;;;;;;;19.63;62.96;99909.55;;;;-50
2021/10/21 11:29:39;;;;;;;1.05;0.95;;;;;;;19.62;62.97;99903.55;;;;-51
2021/10/21 11:32:39;;;;;;;1.51;1.03;;;;;;;19.62;62.93;99908.27;;;;-56
2021/10/21 11:35:39;;;;;;;1.15;1.05;;;;;;;19.61;62.98;99901.26;;;;-55
2021/10/21 11:38:39;;;;;;;1.16;1.05;;;;;;;19.59;62.98;99899.50;;;;-59
2021/10/21 11:41:39;;;;;;;0.99;0.99;;;;;;;19.59;62.99;99902.91;;;;-50
2021/10/21 11:44:39;;;;;;;1.66;1.06;;;;;;;19.59;63.23;99899.25;;;;-55
2021/10/21 11:47:39;;;;;;;0.89;0.82;;;;;;;19.61;63.20;99896.05;;;;-58
2021/10/21 11:50:39;;;;;;;1.56;0.99;;;;;;;19.62;63.34;99901.34;;;;-60
2021/10/21 11:53:39;;;;;;;0.91;0.91;;;;;;;19.64;63.42;99913.45;;;;-51
2021/10/21 11:56:39;;;;;;;0.87;0.83;;;;;;;19.67;63.38;99902.96;;;;-52
2021/10/21 11:59:39;;;;;;;1.79;1.07;;;;;;;19.69;63.33;99907.08;;;;-52
2021/10/21 12:02:39;;;;;;;1.22;0.91;;;;;;;19.72;63.23;99906.14;;;;-52
2021/10/21 12:05:40;;;;;;;1.18;0.99;;;;;;;19.75;63.14;99901.88;;;;-52
2021/10/21 12:08:39;;;;;;;1.23;0.88;;;;;;;19.78;63.14;99904.98;;;;-60
2021/10/21 12:11:41;;;;;;;0.90;0.90;;;;;;;19.80;63.13;99907.00;;;;-59
2021/10/21 12:14:39;;;;;;;0.91;0.89;;;;;;;19.82;63.10;99909.85;;;;-52
2021/10/21 12:17:39;;;;;;;1.51;0.97;;;;;;;19.84;63.09;99910.89;;;;-50
2021/10/21 12:20:45;;;;;;;0.99;0.94;;;;;;;19.86;63.13;99916.73;;;;-59
2021/10/21 12:23:39;;;;;;;0.89;0.89;;;;;;;19.88;63.06;99906.65;;;;-59
2021/10/21 12:26:39;;;;;;;1.17;0.98;;;;;;;19.92;63.07;99901.09;;;;-59
2021/10/21 12:29:42;;;;;;;1.11;0.99;;;;;;;19.94;63.04;99899.05;;;;-51
2021/10/21 12:32:39;;;;;;;0.87;0.87;;;;;;;19.97;63.11;99887.34;;;;-60
2021/10/21 12:35:39;;;;;;;1.16;0.97;;;;;;;19.99;63.08;99883.58;;;;-60
2021/10/21 12:38:39;;;;;;;0.87;0.87;;;;;;;20.01;63.01;99885.45;;;;-60
2021/10/21 12:41:39;;;;;;;1.00;0.90;;;;;;;20.02;63.03;99873.05;;;;-59
2021/10/21 12:44:39;;;;;;;0.98;0.87;;;;;;;20.04;63.06;99865.40;;;;-59
2021/10/21 12:47:40;;;;;;;0.79;0.79;;;;;;;20.05;63.04;99849.30;;;;-58
2021/10/21 12:50:39;;;;;;;1.35;1.07;;;;;;;20.07;62.99;99834.98;;;;-59
2021/10/21 12:53:39;;;;;;;1.87;0.89;;;;;;;20.09;62.98;99841.48;;;;-50
2021/10/21 12:56:40;;;;;;;2.84;1.06;;;;;;;20.15;63.57;99830.38;;;;-54
2021/10/21 12:59:39;;;;;;;1.78;1.10;;;;;;;20.17;63.59;99833.19;;;;-52
2021/10/21 13:02:39;;;;;;;2.21;1.15;;;;;;;20.21;63.82;99828.13;;;;-54
2021/10/21 13:05:39;;;;;;;1.25;0.97;;;;;;;20.23;63.74;99809.48;;;;-58
2021/10/21 13:08:41;;;;;;;3.99;1.22;;;;;;;20.26;63.97;99802.95;;;;-58
2021/10/21 13:11:39;;;;;;;5.99;1.55;;;;;;;20.28;62.86;99794.72;;;;-49
2021/10/21 13:14:39;;;;;;;5.32;1.56;;;;;;;20.30;62.88;99790.98;;;;-50
2021/10/21 13:17:39;;;;;;;3.43;1.48;;;;;;;20.28;62.66;99781.30;;;;-50
2021/10/21 13:20:39;;;;;;;8.35;1.53;;;;;;;20.29;62.20;99783.80;;;;-48
2021/10/21 13:23:39;;;;;;;7.03;1.47;;;;;;;20.29;62.25;99777.30;;;;-49
2021/10/21 13:26:39;;;;;;;2.39;1.45;;;;;;;20.30;62.05;99782.27;;;;-54
2021/10/21 13:29:39;;;;;;;5.07;1.53;;;;;;;20.31;62.23;99789.81;;;;-54
2021/10/21 13:32:39;;;;;;;10.29;1.13;;;;;;;20.32;62.20;99787.70;;;;-61
2021/10/21 13:35:39;;;;;;;5.27;1.51;;;;;;;20.32;62.18;99788.52;;;;-58
2021/10/21 13:38:39;;;;;;;2.91;1.30;;;;;;;20.33;62.20;99791.67;;;;-59
2021/10/21 13:41:39;;;;;;;3.49;1.26;;;;;;;20.33;62.29;99800.62;;;;-58
2021/10/21 13:44:39;;;;;;;3.73;1.33;;;;;;;20.33;62.25;99801.19;;;;-55
2021/10/21 13:47:39;;;;;;;1.98;1.26;;;;;;;20.33;62.30;99803.22;;;;-61
2021/10/21 13:50:39;;;;;;;4.87;1.35;;;;;;;20.33;62.26;99802.32;;;;-59
2021/10/21 13:53:39;;;;;;;3.80;1.33;;;;;;;20.33;62.25;99805.25;;;;-58
2021/10/21 13:56:39;;;;;;;3.45;1.22;;;;;;;20.33;62.24;99802.66;;;;-55
2021/10/21 13:59:41;;;;;;;3.12;1.20;;;;;;;20.32;62.29;99803.97;;;;-56
2021/10/21 14:02:39;;;;;;;2.99;1.30;;;;;;;20.33;62.31;99807.95;;;;-58
2021/10/21 14:05:39;;;;;;;3.53;1.29;;;;;;;20.33;62.30;99806.00;;;;-54
2021/10/21 14:08:39;;;;;;;2.71;1.21;;;;;;;20.32;62.30;99803.09;;;;-58
2021/10/21 14:11:39;;;;;;;4.16;1.15;;;;;;;20.31;62.28;99795.02;;;;-55
2021/10/21 14:14:39;;;;;;;3.05;1.31;;;;;;;20.31;62.32;99802.66;;;;-55
2021/10/21 14:17:39;;;;;;;2.89;1.23;;;;;;;20.31;62.29;99804.22;;;;-59
2021/10/21 14:20:39;;;;;;;1.27;1.07;;;;;;;20.31;62.31;99809.76;;;;-61
2021/10/21 14:23:39;;;;;;;3.24;1.37;;;;;;;20.30;62.28;99800.00;;;;-54
2021/10/21 14:26:39;;;;;;;3.59;1.34;;;;;;;20.30;62.31;99801.88;;;;-58
2021/10/21 14:29:39;;;;;;;2.63;0.99;;;;;;;20.29;62.32;99805.53;;;;-54
2021/10/21 14:32:39;;;;;;;1.93;1.19;;;;;;;20.29;62.33;99806.20;;;;-54
2021/10/21 14:35:39;;;;;;;1.11;1.01;;;;;;;20.28;62.33;99809.94;;;;-58
2021/10/21 14:38:39;;;;;;;2.65;1.19;;;;;;;20.27;62.37;99810.94;;;;-51
2021/10/21 14:41:39;;;;;;;1.67;1.08;;;;;;;20.28;62.59;99812.63;;;;-50
2021/10/21 14:44:39;;;;;;;2.36;1.20;;;;;;;20.28;62.64;99807.42;;;;-51
2021/10/21 14:47:39;;;;;;;3.11;0.99;;;;;;;20.28;62.65;99801.16;;;;-51
2021/10/21 14:50:39;;;;;;;2.09;1.19;;;;;;;20.29;62.77;99798.45;;;;-59
2021/10/21 14:53:39;;;;;;;1.74;1.15;;;;;;;20.31;62.74;99800.48;;;;-58
2021/10/21 14:56:41;;;;;;;1.53;1.10;;;;;;;20.32;62.77;99799.10;;;;-61
2021/10/21 14:59:39;;;;;;;3.06;1.22;;;;;;;20.32;62.83;99798.92;;;;-54
2021/10/21 15:02:39;;;;;;;1.55;1.08;;;;;;;20.33;62.89;99797.20;;;;-51
2021/10/21 15:05:45;;;;;;;3.41;1.11;;;;;;;20.33;62.85;99789.88;;;;-59
2021/10/21 15:08:58;;;;;;;2.30;1.00;;;;;;;20.34;62.87;99786.30;;;;-59
2021/10/21 15:16:17;;;;;;;1.22;1.10;;;;;;;20.37;62.78;99784.23;;;;-54
2021/10/21 15:24:39;;;;;;;1.59;1.21;;;;;;;20.39;62.89;99783.73;;;;-54
2021/10/21 15:27:39;;;;;;;2.37;1.19;;;;;;;20.39;62.83;99774.38;;;;-52
2021/10/21 15:30:40;;;;;;;2.07;1.20;;;;;;;20.39;62.83;99786.81;;;;-57
2021/10/21 15:33:39;;;;;;;2.59;1.10;;;;;;;20.40;62.79;99784.14;;;;-53
2021/10/21 15:36:39;;;;;;;3.39;1.52;;;;;;;20.40;62.78;99784.95;;;;-48
2021/10/21 15:39:42;;;;;;;2.71;1.20;;;;;;;20.39;60.79;99770.38;;;;-50
2021/10/21 15:42:39;;;;;;;5.93;1.29;;;;;;;20.39;60.81;99765.17;;;;-54
2021/10/21 15:45:44;;;;;;;4.51;1.21;;;;;;;20.41;61.15;99765.48;;;;-55
2021/10/21 15:48:53;;;;;;;2.32;1.25;;;;;;;20.41;61.28;99770.55;;;;-51
2021/10/21 16:10:59;;;;;;;1.75;1.19;;;;;;;20.41;61.28;99782.09;;;;-54
2021/10/21 16:13:39;;;;;;;2.49;1.39;;;;;;;20.41;61.35;99785.75;;;;-51
2021/10/21 16:16:39;;;;;;;4.31;1.45;;;;;;;20.41;61.42;99788.02;;;;-49
2021/10/21 16:19:40;;;;;;;5.48;1.29;;;;;;;20.42;61.42;99785.41;;;;-53
2021/10/21 16:22:47;;;;;;;2.29;1.19;;;;;;;20.42;61.19;99792.89;;;;-52
2021/10/21 16:26:03;;;;;;;2.57;1.29;;;;;;;20.41;61.16;99798.59;;;;-60
2021/10/21 16:28:39;;;;;;;4.25;1.30;;;;;;;20.41;61.39;99806.59;;;;-57
2021/10/21 16:31:39;;;;;;;2.35;1.30;;;;;;;20.41;61.11;99810.75;;;;-52
2021/10/21 16:34:39;;;;;;;1.77;1.20;;;;;;;20.40;61.08;99817.02;;;;-53
2021/10/21 16:37:39;;;;;;;3.39;1.39;;;;;;;20.40;61.08;99817.92;;;;-52
2021/10/21 16:40:39;;;;;;;2.71;1.20;;;;;;;20.41;61.03;99820.09;;;;-54
2021/10/21 16:43:39;;;;;;;2.24;1.18;;;;;;;20.40;60.93;99825.64;;;;-49
2021/10/21 16:46:39;;;;;;;2.21;1.32;;;;;;;20.42;61.22;99834.73;;;;-58
2021/10/21 16:49:39;;;;;;;2.02;1.41;;;;;;;20.43;61.42;99828.45;;;;-56
2021/10/21 16:52:40;;;;;;;3.11;1.32;;;;;;;20.44;61.59;99837.25;;;;-49
2021/10/21 16:55:39;;;;;;;1.79;1.02;;;;;;;20.46;61.67;99842.27;;;;-51
2021/10/21 16:58:40;;;;;;;1.73;1.20;;;;;;;20.47;61.75;99847.71;;;;-56
2021/10/21 17:01:39;;;;;;;2.39;1.29;;;;;;;20.46;61.86;99851.31;;;;-57
2021/10/21 17:04:39;;;;;;;3.18;1.19;;;;;;;20.47;61.90;99864.64;;;;-57
2021/10/21 17:07:39;;;;;;;3.37;1.22;;;;;;;20.47;61.93;99869.20;;;;-57
2021/10/21 17:10:39;;;;;;;1.72;1.17;;;;;;;20.48;62.01;99877.66;;;;-54
2021/10/21 17:13:39;;;;;;;2.87;1.32;;;;;;;20.50;61.99;99883.61;;;;-53
2021/10/21 17:16:42;;;;;;;2.41;1.36;;;;;;;20.51;61.95;99901.59;;;;-52
2021/10/21 17:19:41;;;;;;;1.57;1.20;;;;;;;20.50;61.95;99912.64;;;;-52
2021/10/21 17:22:39;;;;;;;1.85;1.34;;;;;;;20.49;61.87;99916.80;;;;-52
2021/10/21 17:25:39;;;;;;;4.69;1.31;;;;;;;20.49;61.71;99921.44;;;;-52